Time;durP1;ratioP1;P1;durP2;ratioP2;P2;SDS_P1;SDS_P2;PMS_P1;PMS_P2;Temp;Humidity;BMP_temperature;BMP_pressure;BME280_temperature;BME280_humidity;BME280_pressure;Samples;Min_cycle;Max_cycle;Signal;HPM_P1;HPM_P2
2022/12/18 00:01:36;;;;;;;75.18;49.15;;;;;;;;;;4978956;28;20413;-81
2022/12/18 00:04:03;;;;;;;67.93;38.60;;;;;;;;;;4981713;28;20185;-81
2022/12/18 00:06:30;;;;;;;66.43;37.37;;;;;;;;;;4998620;28;20192;-81
2022/12/18 00:08:57;;;;;;;75.57;49.72;;;;;;;;;;4997452;28;20413;-81
2022/12/18 00:11:24;;;;;;;67.27;37.70;;;;;;;;;;4982272;28;20196;-81
2022/12/18 00:13:50;;;;;;;64.80;37.28;;;;;;;;;;4998277;28;20348;-81
2022/12/18 00:16:20;;;;;;;72.50;45.45;;;;;;;;;;4997967;28;20514;-81
2022/12/18 00:18:46;;;;;;;74.55;48.17;;;;;;;;;;5014909;28;20411;-87
2022/12/18 00:21:12;;;;;;;73.55;49.53;;;;;;;;;;4996561;28;20411;-87
2022/12/18 00:23:39;;;;;;;73.22;48.70;;;;;;;;;;4997590;28;20407;-87
2022/12/18 00:26:07;;;;;;;68.20;47.20;;;;;;;;;;5014603;28;20494;-87
2022/12/18 00:28:34;;;;;;;74.05;47.35;;;;;;;;;;4997380;28;20410;-87
2022/12/18 00:31:03;;;;;;;70.95;47.83;;;;;;;;;;4997394;28;20422;-87
2022/12/18 00:33:29;;;;;;;71.40;47.63;;;;;;;;;;5014734;28;20411;-87
2022/12/18 00:35:55;;;;;;;70.72;47.88;;;;;;;;;;4997759;28;20431;-87
2022/12/18 00:38:21;;;;;;;73.17;48.47;;;;;;;;;;4997272;28;20399;-88
2022/12/18 00:40:47;;;;;;;72.43;46.08;;;;;;;;;;4981552;28;20458;-87
2022/12/18 00:43:13;;;;;;;72.25;47.47;;;;;;;;;;4984220;28;20455;-87
2022/12/18 00:45:39;;;;;;;72.17;47.57;;;;;;;;;;4991736;28;20434;-87
2022/12/18 00:48:05;;;;;;;71.63;47.33;;;;;;;;;;4956087;28;20426;-87
2022/12/18 00:50:31;;;;;;;67.97;47.08;;;;;;;;;;4966270;28;20515;-87
2022/12/18 00:52:57;;;;;;;71.68;47.63;;;;;;;;;;4975948;28;20500;-88
2022/12/18 00:55:23;;;;;;;71.97;48.08;;;;;;;;;;4966292;28;20433;-80
2022/12/18 00:57:51;;;;;;;67.15;47.22;;;;;;;;;;4974586;28;20504;-81
2022/12/18 01:00:17;;;;;;;68.60;46.70;;;;;;;;;;4989494;28;20403;-81
2022/12/18 01:02:43;;;;;;;68.37;46.90;;;;;;;;;;4975231;28;20496;-81
2022/12/18 01:05:11;;;;;;;68.50;46.38;;;;;;;;;;4990244;28;20485;-81
2022/12/18 01:07:37;;;;;;;68.55;46.40;;;;;;;;;;4974097;28;20414;-80
2022/12/18 01:10:03;;;;;;;67.63;46.20;;;;;;;;;;4952805;28;20475;-84
2022/12/18 01:12:29;;;;;;;65.55;46.72;;;;;;;;;;5009823;28;20416;-83
2022/12/18 01:14:55;;;;;;;65.35;44.58;;;;;;;;;;5009786;28;20435;-83
2022/12/18 01:17:21;;;;;;;67.35;45.55;;;;;;;;;;4992950;28;20440;-81
2022/12/18 01:19:47;;;;;;;62.47;44.28;;;;;;;;;;5009431;28;20429;-81
2022/12/18 01:22:13;;;;;;;65.95;44.75;;;;;;;;;;5009407;28;20435;-81
2022/12/18 01:24:39;;;;;;;62.25;43.42;;;;;;;;;;4992967;28;20415;-81
2022/12/18 01:27:06;;;;;;;64.47;43.70;;;;;;;;;;4994136;28;20405;-81
2022/12/18 01:29:32;;;;;;;63.30;43.80;;;;;;;;;;4993228;28;20508;-81
2022/12/18 01:31:58;;;;;;;66.18;44.97;;;;;;;;;;4976779;28;20498;-81
2022/12/18 01:34:24;;;;;;;63.22;43.10;;;;;;;;;;4977425;28;20424;-81
2022/12/18 01:36:53;;;;;;;60.85;42.42;;;;;;;;;;4960624;28;20409;-81
2022/12/18 01:39:19;;;;;;;68.30;47.08;;;;;;;;;;4976768;28;20495;-81
2022/12/18 01:42:01;;;;;;;70.18;47.28;;;;;;;;;;4994011;28;20401;-83
2022/12/18 01:44:45;;;;;;;76.15;49.38;;;;;;;;;;4994204;28;20423;-84
2022/12/18 01:47:15;;;;;;;86.03;50.47;;;;;;;;;;4993806;28;20411;-83
2022/12/18 01:49:41;;;;;;;79.57;50.25;;;;;;;;;;4976665;28;20543;-84
2022/12/18 01:52:07;;;;;;;83.23;50.23;;;;;;;;;;4976550;28;20470;-83
2022/12/18 01:54:33;;;;;;;116.53;51.10;;;;;;;;;;4976630;28;20437;-84
2022/12/18 01:57:00;;;;;;;104.80;52.15;;;;;;;;;;4961503;28;20423;-84
2022/12/18 01:59:26;;;;;;;96.40;52.33;;;;;;;;;;4974624;28;20429;-84
2022/12/18 02:01:52;;;;;;;87.70;51.10;;;;;;;;;;4960246;28;20459;-84
2022/12/18 02:04:23;;;;;;;84.85;50.53;;;;;;;;;;4957013;28;20465;-83
2022/12/18 02:07:07;;;;;;;80.43;48.88;;;;;;;;;;4956854;28;20430;-84
2022/12/18 02:09:39;;;;;;;82.60;49.15;;;;;;;;;;4974141;28;20437;-84
2022/12/18 02:12:08;;;;;;;76.63;48.15;;;;;;;;;;4995611;28;20444;-84
2022/12/18 02:14:37;;;;;;;80.03;48.35;;;;;;;;;;4966492;28;20537;-84
2022/12/18 02:17:13;;;;;;;70.82;45.72;;;;;;;;;;4979918;28;20435;-84
2022/12/18 02:19:45;;;;;;;74.07;46.17;;;;;;;;;;4965404;28;20455;-84
2022/12/18 02:22:23;;;;;;;70.80;46.15;;;;;;;;;;5010018;28;20545;-84
2022/12/18 02:24:58;;;;;;;69.97;45.85;;;;;;;;;;4982105;28;20429;-84
2022/12/18 02:27:24;;;;;;;70.30;44.70;;;;;;;;;;4960737;28;20417;-84
2022/12/18 02:29:52;;;;;;;68.63;44.42;;;;;;;;;;4961517;28;20438;-83
2022/12/18 02:32:20;;;;;;;67.07;44.43;;;;;;;;;;4960761;28;20421;-79
2022/12/18 02:34:46;;;;;;;69.38;44.60;;;;;;;;;;4960414;28;20433;-79
2022/12/18 02:37:14;;;;;;;71.78;45.85;;;;;;;;;;4976491;28;20461;-79
2022/12/18 02:39:42;;;;;;;70.18;45.17;;;;;;;;;;4971557;28;20484;-79
2022/12/18 02:42:08;;;;;;;66.80;43.40;;;;;;;;;;4986888;28;20418;-79
2022/12/18 02:44:44;;;;;;;66.25;42.85;;;;;;;;;;4972605;28;20489;-79
2022/12/18 02:47:15;;;;;;;66.28;43.38;;;;;;;;;;5010817;28;20433;-79
2022/12/18 02:49:44;;;;;;;65.77;42.20;;;;;;;;;;4979986;28;20421;-80
2022/12/18 02:52:25;;;;;;;62.33;42.17;;;;;;;;;;4979711;28;20483;-79
2022/12/18 02:55:09;;;;;;;61.92;40.90;;;;;;;;;;4979394;28;20433;-79
2022/12/18 02:57:41;;;;;;;59.95;41.17;;;;;;;;;;4979382;28;20512;-79
2022/12/18 03:00:10;;;;;;;61.95;40.90;;;;;;;;;;4962081;28;20454;-79
2022/12/18 03:02:46;;;;;;;58.28;40.03;;;;;;;;;;4977837;28;20422;-79
2022/12/18 03:05:21;;;;;;;53.95;38.05;;;;;;;;;;4979313;28;20508;-80
2022/12/18 03:08:07;;;;;;;55.17;37.33;;;;;;;;;;4976974;28;20525;-81
2022/12/18 03:10:36;;;;;;;55.60;38.15;;;;;;;;;;4978259;28;20422;-81
2022/12/18 03:13:04;;;;;;;53.83;38.67;;;;;;;;;;4998858;28;20411;-81
2022/12/18 03:15:38;;;;;;;54.58;37.72;;;;;;;;;;4977908;28;20443;-80
2022/12/18 03:18:06;;;;;;;52.22;36.85;;;;;;;;;;4988181;28;20455;-81
2022/12/18 03:20:35;;;;;;;49.25;35.92;;;;;;;;;;4982684;28;20422;-81
2022/12/18 03:23:09;;;;;;;49.08;35.50;;;;;;;;;;4959269;28;20410;-84
2022/12/18 03:25:39;;;;;;;48.45;34.92;;;;;;;;;;4959873;28;20411;-84
2022/12/18 03:28:08;;;;;;;47.38;34.50;;;;;;;;;;4959573;28;20410;-84
2022/12/18 03:30:34;;;;;;;48.22;34.75;;;;;;;;;;4959639;28;20468;-84
2022/12/18 03:33:08;;;;;;;48.28;34.63;;;;;;;;;;4959620;28;20490;-83
2022/12/18 03:35:35;;;;;;;43.97;32.83;;;;;;;;;;4976684;28;20535;-84
2022/12/18 03:38:02;;;;;;;47.13;32.55;;;;;;;;;;4959487;28;20445;-84
2022/12/18 03:40:32;;;;;;;43.10;31.25;;;;;;;;;;4959716;28;20410;-81
2022/12/18 03:43:10;;;;;;;43.90;32.75;;;;;;;;;;4974898;28;20471;-81
2022/12/18 03:45:38;;;;;;;43.47;31.02;;;;;;;;;;4988225;28;20436;-81
2022/12/18 03:48:07;;;;;;;41.90;30.80;;;;;;;;;;4978797;28;20447;-81
2022/12/18 03:50:38;;;;;;;42.60;30.80;;;;;;;;;;4978733;28;20413;-79
2022/12/18 03:53:07;;;;;;;42.80;30.67;;;;;;;;;;4979013;28;20514;-79
2022/12/18 03:55:35;;;;;;;37.27;22.90;;;;;;;;;;5012037;28;20273;-81
2022/12/18 03:58:02;;;;;;;38.08;28.52;;;;;;;;;;4995483;28;20413;-81
2022/12/18 04:00:28;;;;;;;40.28;29.48;;;;;;;;;;4995678;28;20464;-81
2022/12/18 04:02:56;;;;;;;41.50;29.65;;;;;;;;;;4994578;28;20412;-81
2022/12/18 04:05:23;;;;;;;38.38;29.33;;;;;;;;;;4994440;28;20416;-80
2022/12/18 04:07:50;;;;;;;39.58;29.02;;;;;;;;;;4994608;28;20416;-81
2022/12/18 04:10:16;;;;;;;39.13;28.38;;;;;;;;;;4994544;28;20405;-80
2022/12/18 04:12:42;;;;;;;37.00;28.30;;;;;;;;;;4995522;28;20441;-84
2022/12/18 04:15:09;;;;;;;35.95;24.20;;;;;;;;;;4995380;28;20507;-84
2022/12/18 04:17:35;;;;;;;37.70;27.05;;;;;;;;;;5008231;28;20427;-84
2022/12/18 04:20:01;;;;;;;35.53;26.58;;;;;;;;;;5013624;28;20422;-84
2022/12/18 04:22:27;;;;;;;33.28;26.52;;;;;;;;;;5000681;28;20430;-83
2022/12/18 04:24:53;;;;;;;35.50;26.63;;;;;;;;;;4962570;28;20422;-84
2022/12/18 04:27:19;;;;;;;34.53;25.63;;;;;;;;;;4997377;28;20407;-84
2022/12/18 04:32:22;;;;;;;36.53;26.20;;;;;;;;;;4993668;28;20469;-78
2022/12/18 04:34:48;;;;;;;33.55;24.95;;;;;;;;;;4993530;28;20447;-78
2022/12/18 04:37:14;;;;;;;32.40;24.58;;;;;;;;;;4978098;28;20414;-78
2022/12/18 04:39:40;;;;;;;31.20;24.67;;;;;;;;;;4991183;28;20444;-78
2022/12/18 04:42:06;;;;;;;32.25;24.85;;;;;;;;;;4974524;28;20513;-78
2022/12/18 04:44:32;;;;;;;33.20;24.63;;;;;;;;;;4974624;28;20438;-78
2022/12/18 04:46:58;;;;;;;31.60;23.63;;;;;;;;;;4974451;28;20418;-80
2022/12/18 04:49:24;;;;;;;30.95;23.48;;;;;;;;;;5006116;28;20408;-80
2022/12/18 04:51:51;;;;;;;29.40;23.60;;;;;;;;;;4994074;28;20423;-80
2022/12/18 04:54:17;;;;;;;30.98;23.25;;;;;;;;;;4994188;28;20436;-80
2022/12/18 04:56:43;;;;;;;29.60;22.73;;;;;;;;;;4993710;28;20432;-80
2022/12/18 04:59:09;;;;;;;28.58;22.33;;;;;;;;;;4993732;28;20408;-80
2022/12/18 05:01:35;;;;;;;29.60;22.85;;;;;;;;;;4993607;28;20460;-83
2022/12/18 05:04:02;;;;;;;28.03;18.53;;;;;;;;;;4994518;28;20184;-83
2022/12/18 05:06:28;;;;;;;29.43;18.07;;;;;;;;;;4994474;28;20186;-84
2022/12/18 05:08:54;;;;;;;29.25;21.40;;;;;;;;;;4976396;28;20435;-83
2022/12/18 05:11:20;;;;;;;26.30;18.17;;;;;;;;;;4974746;28;20171;-83
2022/12/18 05:13:46;;;;;;;28.20;22.23;;;;;;;;;;4958008;28;20580;-83
2022/12/18 05:16:12;;;;;;;26.30;18.60;;;;;;;;;;4959121;28;20282;-82
2022/12/18 05:18:38;;;;;;;26.53;17.13;;;;;;;;;;4975537;28;20179;-81
2022/12/18 05:21:05;;;;;;;25.20;16.13;;;;;;;;;;4974775;28;20273;-81
2022/12/18 05:23:31;;;;;;;29.17;22.15;;;;;;;;;;4973749;28;20414;-81
2022/12/18 05:25:58;;;;;;;28.17;21.80;;;;;;;;;;4958418;28;20489;-81
2022/12/18 05:28:24;;;;;;;28.20;21.70;;;;;;;;;;4973989;28;20429;-81
2022/12/18 05:30:51;;;;;;;26.70;17.77;;;;;;;;;;4982686;28;20257;-80
2022/12/18 05:33:17;;;;;;;26.60;17.27;;;;;;;;;;4980054;28;20248;-80
2022/12/18 05:35:44;;;;;;;24.63;16.90;;;;;;;;;;4990965;28;20213;-80
2022/12/18 05:38:10;;;;;;;27.20;15.93;;;;;;;;;;4994164;28;20189;-80
2022/12/18 05:40:36;;;;;;;25.93;16.57;;;;;;;;;;4978178;28;20178;-80
2022/12/18 05:43:02;;;;;;;25.27;16.57;;;;;;;;;;4961622;28;20233;-80
2022/12/18 05:45:28;;;;;;;26.23;16.90;;;;;;;;;;4960821;28;20274;-80
2022/12/18 05:47:54;;;;;;;25.03;16.70;;;;;;;;;;4994848;28;20213;-80
2022/12/18 05:50:20;;;;;;;24.47;15.77;;;;;;;;;;4961474;28;20226;-80
2022/12/18 05:52:46;;;;;;;22.80;15.80;;;;;;;;;;4977888;28;20190;-83
2022/12/18 05:55:12;;;;;;;27.03;16.20;;;;;;;;;;4961423;28;20213;-83
2022/12/18 05:57:38;;;;;;;23.93;15.73;;;;;;;;;;4994602;28;20178;-83
2022/12/18 06:00:04;;;;;;;22.73;16.00;;;;;;;;;;4977441;28;20178;-83
2022/12/18 06:02:31;;;;;;;26.07;16.77;;;;;;;;;;4977707;28;20197;-83
2022/12/18 06:04:57;;;;;;;23.40;16.33;;;;;;;;;;4993517;28;20194;-83
2022/12/18 06:07:23;;;;;;;27.17;17.57;;;;;;;;;;4993493;28;20283;-83
2022/12/18 06:09:51;;;;;;;26.43;17.40;;;;;;;;;;5002374;28;20310;-81
2022/12/18 06:12:17;;;;;;;26.20;16.47;;;;;;;;;;5012233;28;20205;-80
2022/12/18 06:14:44;;;;;;;28.17;20.65;;;;;;;;;;5012009;28;20435;-80
2022/12/18 06:17:10;;;;;;;26.90;19.20;;;;;;;;;;5012540;28;20239;-80
2022/12/18 06:19:36;;;;;;;25.17;17.13;;;;;;;;;;5012616;28;20191;-80
2022/12/18 06:22:02;;;;;;;25.57;16.80;;;;;;;;;;5012344;28;20272;-82
2022/12/18 06:24:28;;;;;;;26.07;17.30;;;;;;;;;;5012791;28;20177;-82
2022/12/18 06:26:54;;;;;;;26.37;16.33;;;;;;;;;;5012614;28;20191;-84
2022/12/18 06:29:20;;;;;;;25.33;17.27;;;;;;;;;;5012309;28;20180;-83
2022/12/18 06:31:46;;;;;;;25.83;16.93;;;;;;;;;;5012504;28;20315;-85
2022/12/18 06:34:12;;;;;;;24.47;16.20;;;;;;;;;;5011200;28;20188;-84
2022/12/18 06:36:38;;;;;;;26.83;16.63;;;;;;;;;;5012168;28;20216;-84
2022/12/18 06:39:04;;;;;;;26.50;16.80;;;;;;;;;;5011187;28;20187;-84
2022/12/18 06:41:30;;;;;;;26.57;17.33;;;;;;;;;;5011139;28;20187;-85
2022/12/18 06:43:57;;;;;;;24.17;16.07;;;;;;;;;;5009464;28;20242;-82
2022/12/18 06:46:23;;;;;;;25.73;16.43;;;;;;;;;;5007700;28;20322;-81
2022/12/18 06:48:50;;;;;;;29.05;22.27;;;;;;;;;;5004900;28;20487;-81
2022/12/18 06:51:20;;;;;;;29.10;22.20;;;;;;;;;;5008169;28;20430;-81
2022/12/18 06:53:46;;;;;;;30.67;23.80;;;;;;;;;;5025382;28;20411;-82
2022/12/18 06:56:12;;;;;;;28.83;22.15;;;;;;;;;;5010840;28;20435;-82
2022/12/18 06:58:38;;;;;;;27.60;18.10;;;;;;;;;;5003394;28;20185;-82
2022/12/18 07:01:05;;;;;;;23.80;17.03;;;;;;;;;;5002765;28;20269;-82
2022/12/18 07:03:32;;;;;;;23.33;16.00;;;;;;;;;;5005516;28;20388;-82
2022/12/18 07:05:58;;;;;;;28.53;21.80;;;;;;;;;;5015857;28;20426;-82
2022/12/18 07:08:26;;;;;;;27.40;21.25;;;;;;;;;;5014638;28;20411;-82
2022/12/18 07:10:53;;;;;;;26.90;21.45;;;;;;;;;;5013994;28;20422;-82
2022/12/18 07:13:23;;;;;;;26.55;21.27;;;;;;;;;;5015489;28;20453;-82
2022/12/18 07:15:49;;;;;;;24.60;16.50;;;;;;;;;;5016617;28;20201;-82
2022/12/18 07:18:15;;;;;;;23.10;15.90;;;;;;;;;;5015740;28;20201;-82
2022/12/18 07:20:41;;;;;;;25.52;17.10;;;;;;;;;;5015124;28;20411;-80
2022/12/18 07:23:07;;;;;;;25.27;20.53;;;;;;;;;;5014639;28;20483;-80
2022/12/18 07:25:36;;;;;;;24.77;20.75;;;;;;;;;;5014417;28;20507;-81
2022/12/18 07:28:03;;;;;;;23.87;17.47;;;;;;;;;;5013979;28;20181;-81
2022/12/18 07:30:29;;;;;;;26.00;16.93;;;;;;;;;;5013688;28;20224;-81
2022/12/18 07:32:55;;;;;;;22.57;15.83;;;;;;;;;;5016333;28;20185;-81
2022/12/18 07:35:21;;;;;;;25.30;15.97;;;;;;;;;;5015854;28;20217;-81
2022/12/18 07:37:47;;;;;;;24.33;16.33;;;;;;;;;;5015854;28;20193;-81
2022/12/18 07:40:13;;;;;;;26.67;16.23;;;;;;;;;;5015030;28;20177;-81
2022/12/18 07:42:39;;;;;;;25.50;16.93;;;;;;;;;;5014555;28;20181;-81
2022/12/18 07:45:06;;;;;;;25.57;16.07;;;;;;;;;;5014606;28;20267;-81
2022/12/18 07:47:34;;;;;;;24.70;17.07;;;;;;;;;;5014546;28;20194;-81
2022/12/18 07:50:00;;;;;;;22.93;16.20;;;;;;;;;;5007933;28;20191;-81
2022/12/18 07:52:26;;;;;;;25.60;17.13;;;;;;;;;;5009930;28;20188;-81
2022/12/18 07:54:52;;;;;;;31.63;17.47;;;;;;;;;;5014498;28;20215;-81
2022/12/18 07:57:18;;;;;;;27.93;18.17;;;;;;;;;;5012781;28;20177;-81
2022/12/18 07:59:44;;;;;;;26.30;17.37;;;;;;;;;;5013465;28;20188;-80
2022/12/18 08:02:10;;;;;;;27.15;18.08;;;;;;;;;;5014395;28;20503;-81
2022/12/18 08:04:36;;;;;;;26.17;17.03;;;;;;;;;;5014254;28;20215;-81
2022/12/18 08:07:02;;;;;;;25.33;17.07;;;;;;;;;;5014549;28;20247;-81
2022/12/18 08:09:28;;;;;;;26.20;17.40;;;;;;;;;;5013836;28;20191;-81
2022/12/18 08:11:54;;;;;;;27.90;16.80;;;;;;;;;;5014442;28;20188;-81
2022/12/18 08:14:20;;;;;;;28.50;21.50;;;;;;;;;;5008030;28;20510;-81
2022/12/18 08:16:46;;;;;;;24.73;17.97;;;;;;;;;;5013311;28;20178;-81
2022/12/18 08:19:12;;;;;;;24.53;17.30;;;;;;;;;;5014212;28;20185;-81
2022/12/18 08:21:38;;;;;;;26.53;20.53;;;;;;;;;;5013667;28;20407;-78
2022/12/18 08:24:05;;;;;;;26.05;20.67;;;;;;;;;;5013694;28;20494;-79
2022/12/18 08:26:31;;;;;;;25.67;20.35;;;;;;;;;;5013114;28;20414;-79
2022/12/18 08:28:58;;;;;;;25.70;19.90;;;;;;;;;;5006676;28;20518;-79
2022/12/18 08:31:25;;;;;;;25.23;20.27;;;;;;;;;;5013004;28;20442;-79
2022/12/18 08:33:52;;;;;;;24.27;20.10;;;;;;;;;;5009359;28;20485;-80
2022/12/18 08:36:18;;;;;;;26.00;19.33;;;;;;;;;;5014225;28;20506;-79
2022/12/18 08:38:45;;;;;;;24.23;19.92;;;;;;;;;;5013216;28;20447;-83
2022/12/18 08:41:12;;;;;;;24.00;19.07;;;;;;;;;;5012847;28;20430;-83
2022/12/18 08:46:24;;;;;;;21.75;17.70;;;;;;;;;;5008846;28;20513;-84
2022/12/18 08:48:51;;;;;;;19.42;15.85;;;;;;;;;;5007431;28;20419;-85
2022/12/18 08:51:17;;;;;;;19.42;15.80;;;;;;;;;;5010887;28;20426;-83
2022/12/18 08:53:44;;;;;;;19.17;15.00;;;;;;;;;;5007532;28;20474;-84
2022/12/18 08:56:10;;;;;;;16.92;13.23;;;;;;;;;;5005249;28;20438;-82
2022/12/18 08:58:36;;;;;;;18.17;14.50;;;;;;;;;;5006797;28;20426;-82
2022/12/18 09:01:03;;;;;;;15.93;13.30;;;;;;;;;;5010693;28;20422;-82
2022/12/18 09:03:29;;;;;;;12.90;10.07;;;;;;;;;;5013071;28;20169;-82
2022/12/18 09:05:55;;;;;;;14.53;10.47;;;;;;;;;;5014742;28;20267;-82
2022/12/18 09:08:21;;;;;;;15.18;12.15;;;;;;;;;;5011939;28;20450;-82
2022/12/18 09:10:48;;;;;;;14.63;10.83;;;;;;;;;;5005753;28;20199;-82
2022/12/18 09:13:15;;;;;;;14.25;10.10;;;;;;;;;;5028307;28;20473;-82
2022/12/18 09:15:48;;;;;;;12.65;10.60;;;;;;;;;;5010795;28;20479;-82
2022/12/18 09:18:15;;;;;;;13.13;11.23;;;;;;;;;;4989777;28;20458;-82
2022/12/18 09:20:41;;;;;;;13.13;11.05;;;;;;;;;;4992426;28;20424;-82
2022/12/18 09:23:07;;;;;;;13.63;11.20;;;;;;;;;;4993833;28;20544;-82
2022/12/18 09:25:35;;;;;;;14.83;11.30;;;;;;;;;;4976899;28;20425;-82
2022/12/18 09:28:02;;;;;;;13.43;10.73;;;;;;;;;;4993406;28;20440;-82
2022/12/18 09:30:28;;;;;;;12.82;11.10;;;;;;;;;;4992934;28;20496;-82
2022/12/18 09:32:54;;;;;;;12.95;11.13;;;;;;;;;;4977094;28;20444;-82
2022/12/18 09:35:20;;;;;;;13.30;9.60;;;;;;;;;;5004795;28;20213;-82
2022/12/18 09:37:46;;;;;;;13.03;10.87;;;;;;;;;;4996326;28;20434;-82
2022/12/18 09:40:16;;;;;;;13.85;11.30;;;;;;;;;;4993801;28;20509;-82
2022/12/18 09:42:45;;;;;;;12.40;9.10;;;;;;;;;;4982884;28;20182;-82
2022/12/18 09:45:14;;;;;;;12.90;9.13;;;;;;;;;;4988731;28;20183;-82
2022/12/18 09:47:41;;;;;;;13.23;11.07;;;;;;;;;;5014785;28;20425;-82
2022/12/18 09:50:21;;;;;;;13.57;9.83;;;;;;;;;;4993230;28;20192;-82
2022/12/18 09:52:50;;;;;;;13.67;9.47;;;;;;;;;;4994100;28;20194;-81
2022/12/18 09:55:25;;;;;;;12.77;9.53;;;;;;;;;;4996821;28;20215;-82
2022/12/18 09:57:57;;;;;;;15.32;10.40;;;;;;;;;;4996990;28;20419;-82
2022/12/18 10:00:24;;;;;;;20.80;10.50;;;;;;;;;;4995567;28;20228;-83
2022/12/18 10:02:57;;;;;;;16.33;11.80;;;;;;;;;;4993969;28;20458;-85
2022/12/18 10:05:29;;;;;;;15.80;10.47;;;;;;;;;;4995987;28;20252;-85
2022/12/18 10:08:25;;;;;;;14.63;10.33;;;;;;;;;;4994340;28;20189;-85
2022/12/18 10:10:56;;;;;;;13.70;9.80;;;;;;;;;;4993120;28;20198;-85
2022/12/18 10:13:23;;;;;;;14.53;10.00;;;;;;;;;;4986914;28;20185;-84
2022/12/18 10:15:52;;;;;;;14.67;10.20;;;;;;;;;;4993170;28;20454;-85
2022/12/18 10:18:21;;;;;;;14.33;10.33;;;;;;;;;;4993587;28;20421;-85
2022/12/18 10:20:49;;;;;;;16.30;12.55;;;;;;;;;;4993592;28;20435;-85
2022/12/18 10:23:34;;;;;;;15.27;11.23;;;;;;;;;;4997653;28;20467;-84
2022/12/18 10:26:00;;;;;;;15.60;12.60;;;;;;;;;;4994609;28;20425;-85
2022/12/18 10:28:27;;;;;;;15.77;12.90;;;;;;;;;;4997486;28;20423;-85
2022/12/18 10:30:53;;;;;;;15.82;12.57;;;;;;;;;;4996310;28;20497;-85
2022/12/18 10:33:23;;;;;;;17.10;12.18;;;;;;;;;;4999144;28;20457;-85
2022/12/18 10:35:53;;;;;;;15.15;12.13;;;;;;;;;;4995485;28;20444;-80
2022/12/18 10:38:19;;;;;;;15.85;12.85;;;;;;;;;;4989415;28;20420;-81
2022/12/18 10:41:04;;;;;;;15.82;11.63;;;;;;;;;;4997132;28;20380;-81
2022/12/18 10:43:30;;;;;;;16.27;10.80;;;;;;;;;;4984561;28;20243;-80
2022/12/18 10:46:14;;;;;;;15.95;12.90;;;;;;;;;;4988889;28;20440;-81
2022/12/18 10:48:48;;;;;;;16.00;12.55;;;;;;;;;;4998162;28;20461;-80
2022/12/18 10:51:21;;;;;;;15.83;12.60;;;;;;;;;;5010436;28;20464;-80
2022/12/18 10:53:51;;;;;;;15.35;12.60;;;;;;;;;;5015679;28;20414;-80
2022/12/18 10:56:20;;;;;;;15.32;12.32;;;;;;;;;;4983499;28;20512;-80
2022/12/18 10:58:56;;;;;;;17.40;10.87;;;;;;;;;;5019410;28;20175;-81
2022/12/18 11:01:22;;;;;;;16.67;11.17;;;;;;;;;;5019566;28;20211;-80
2022/12/18 11:03:51;;;;;;;14.90;10.85;;;;;;;;;;5019338;28;20410;-80
2022/12/18 11:06:22;;;;;;;15.30;11.95;;;;;;;;;;5017899;28;20406;-81
2022/12/18 11:09:03;;;;;;;16.17;13.30;;;;;;;;;;4989049;28;20509;-81
2022/12/18 11:11:29;;;;;;;16.30;13.20;;;;;;;;;;4995537;28;20489;-81
2022/12/18 11:14:06;;;;;;;16.75;11.82;;;;;;;;;;4993719;28;20427;-81
2022/12/18 11:16:37;;;;;;;15.88;12.85;;;;;;;;;;4999105;28;20461;-81
2022/12/18 11:19:30;;;;;;;14.53;10.40;;;;;;;;;;4999515;28;20180;-81
2022/12/18 11:21:57;;;;;;;16.30;11.95;;;;;;;;;;4997766;28;20407;-81
2022/12/18 11:24:36;;;;;;;16.07;10.90;;;;;;;;;;4999529;28;20177;-81
2022/12/18 11:27:03;;;;;;;15.77;13.05;;;;;;;;;;4998598;28;20415;-80
2022/12/18 11:29:39;;;;;;;15.23;12.55;;;;;;;;;;5016118;28;20406;-80
2022/12/18 11:32:24;;;;;;;15.43;11.60;;;;;;;;;;5016744;28;20303;-80
2022/12/18 11:34:54;;;;;;;14.57;10.90;;;;;;;;;;4999350;28;20212;-80
2022/12/18 11:37:20;;;;;;;13.60;10.83;;;;;;;;;;4993344;28;20178;-80
2022/12/18 11:40:06;;;;;;;16.02;13.00;;;;;;;;;;4979019;28;20478;-80
2022/12/18 11:42:38;;;;;;;16.45;13.82;;;;;;;;;;4979095;28;20439;-84
2022/12/18 11:45:17;;;;;;;16.25;12.82;;;;;;;;;;4978733;28;20429;-85
2022/12/18 11:47:43;;;;;;;16.35;13.00;;;;;;;;;;4977250;28;20464;-85
2022/12/18 11:50:15;;;;;;;15.47;11.33;;;;;;;;;;4979843;28;20263;-85
2022/12/18 11:52:41;;;;;;;17.87;12.07;;;;;;;;;;4979744;28;20182;-85
2022/12/18 11:55:15;;;;;;;16.43;11.37;;;;;;;;;;4979266;28;20523;-81
2022/12/18 11:57:41;;;;;;;15.67;11.13;;;;;;;;;;4975658;28;20185;-81
2022/12/18 12:00:16;;;;;;;17.13;11.07;;;;;;;;;;4975009;28;20171;-81
2022/12/18 12:03:01;;;;;;;14.90;10.93;;;;;;;;;;4977905;28;20179;-81
2022/12/18 12:05:39;;;;;;;16.07;11.37;;;;;;;;;;4976275;28;20186;-81
2022/12/18 12:08:05;;;;;;;15.00;12.40;;;;;;;;;;4975297;28;20410;-81
2022/12/18 12:10:37;;;;;;;17.13;11.53;;;;;;;;;;4975820;28;20189;-81
2022/12/18 12:13:03;;;;;;;18.10;13.20;;;;;;;;;;4974994;28;20489;-81
2022/12/18 12:15:38;;;;;;;15.70;12.90;;;;;;;;;;4975624;28;20501;-81
2022/12/18 12:18:31;;;;;;;16.13;11.10;;;;;;;;;;4975897;28;20178;-81
2022/12/18 12:21:12;;;;;;;15.93;13.23;;;;;;;;;;4958683;28;20439;-81
2022/12/18 12:23:38;;;;;;;15.80;11.60;;;;;;;;;;4976712;28;20182;-81
2022/12/18 12:26:09;;;;;;;15.55;12.68;;;;;;;;;;4975188;28;20417;-81
2022/12/18 12:29:02;;;;;;;15.40;12.53;;;;;;;;;;4974838;28;20437;-81
2022/12/18 12:31:47;;;;;;;16.47;11.47;;;;;;;;;;4965778;28;20301;-81
2022/12/18 12:34:32;;;;;;;16.48;12.73;;;;;;;;;;4990977;28;20453;-79
2022/12/18 12:37:13;;;;;;;13.33;10.43;;;;;;;;;;4976562;28;20202;-79
2022/12/18 12:39:41;;;;;;;16.50;12.70;;;;;;;;;;4991116;28;20425;-79
2022/12/18 12:45:02;;;;;;;15.33;11.10;;;;;;;;;;4976835;28;20253;-79
2022/12/18 12:47:32;;;;;;;16.37;11.47;;;;;;;;;;4976582;28;20193;-79
2022/12/18 12:50:00;;;;;;;17.48;12.30;;;;;;;;;;4991548;28;20422;-81
2022/12/18 12:52:32;;;;;;;15.77;12.80;;;;;;;;;;4986295;28;20424;-81
2022/12/18 12:54:59;;;;;;;18.47;11.27;;;;;;;;;;4994122;28;20210;-81
2022/12/18 12:57:34;;;;;;;15.60;11.17;;;;;;;;;;4994778;28;20273;-81
2022/12/18 13:00:12;;;;;;;16.70;10.90;;;;;;;;;;4994494;28;20192;-81
2022/12/18 13:02:42;;;;;;;17.50;13.05;;;;;;;;;;4990979;28;20419;-81
2022/12/18 13:05:26;;;;;;;17.57;11.60;;;;;;;;;;4994576;28;20312;-85
2022/12/18 13:08:09;;;;;;;15.20;11.57;;;;;;;;;;4995016;28;20269;-85
2022/12/18 13:10:36;;;;;;;16.37;11.07;;;;;;;;;;4994925;28;20269;-85
2022/12/18 13:13:05;;;;;;;16.53;10.97;;;;;;;;;;4995157;28;20281;-84
2022/12/18 13:15:34;;;;;;;16.50;11.40;;;;;;;;;;4994863;28;20209;-85
2022/12/18 13:18:04;;;;;;;17.13;11.20;;;;;;;;;;4994817;28;20242;-85
2022/12/18 13:20:34;;;;;;;17.73;10.90;;;;;;;;;;4994006;28;20174;-85
2022/12/18 13:23:00;;;;;;;16.93;11.33;;;;;;;;;;4994874;28;20210;-80
2022/12/18 13:25:28;;;;;;;17.88;12.48;;;;;;;;;;4993988;28;20416;-79
2022/12/18 13:28:09;;;;;;;16.33;13.52;;;;;;;;;;4994763;28;20405;-79
2022/12/18 13:30:35;;;;;;;17.05;12.23;;;;;;;;;;4996753;28;20462;-79
2022/12/18 13:33:16;;;;;;;16.25;12.95;;;;;;;;;;5014776;28;20411;-79
2022/12/18 13:35:49;;;;;;;16.93;12.10;;;;;;;;;;5015200;28;20236;-79
2022/12/18 13:38:23;;;;;;;19.33;12.43;;;;;;;;;;4997761;28;20425;-80
2022/12/18 13:40:48;;;;;;;18.05;13.35;;;;;;;;;;5014329;28;20412;-81
2022/12/18 13:43:20;;;;;;;16.92;13.65;;;;;;;;;;5014091;28;20406;-81
2022/12/18 13:45:59;;;;;;;16.40;13.68;;;;;;;;;;5013885;28;20502;-81
2022/12/18 13:48:25;;;;;;;17.27;13.30;;;;;;;;;;4997694;28;20510;-81
2022/12/18 13:50:55;;;;;;;16.37;12.50;;;;;;;;;;4998039;28;20195;-81
2022/12/18 13:53:28;;;;;;;16.45;13.70;;;;;;;;;;4995663;28;20442;-81
2022/12/18 13:55:54;;;;;;;17.08;13.60;;;;;;;;;;5013542;28;20430;-81
2022/12/18 13:58:20;;;;;;;16.65;13.90;;;;;;;;;;4996500;28;20403;-81
2022/12/18 14:00:46;;;;;;;16.80;13.77;;;;;;;;;;4996496;28;20485;-81
2022/12/18 14:03:18;;;;;;;17.93;13.87;;;;;;;;;;4998263;28;20407;-81
2022/12/18 14:05:45;;;;;;;16.73;14.32;;;;;;;;;;5013163;28;20453;-81
2022/12/18 14:08:15;;;;;;;18.05;13.88;;;;;;;;;;5011187;28;20417;-81
2022/12/18 14:10:48;;;;;;;17.13;14.73;;;;;;;;;;5007975;28;20485;-81
2022/12/18 14:13:24;;;;;;;17.08;14.43;;;;;;;;;;4991732;28;20424;-85
2022/12/18 14:15:51;;;;;;;16.67;13.77;;;;;;;;;;4995503;28;20441;-85
2022/12/18 14:18:26;;;;;;;17.92;13.98;;;;;;;;;;5007166;28;20503;-85
2022/12/18 14:20:54;;;;;;;17.60;14.73;;;;;;;;;;4994238;28;20419;-85
2022/12/18 14:23:35;;;;;;;16.98;14.30;;;;;;;;;;4995937;28;20415;-85
2022/12/18 14:26:20;;;;;;;18.90;14.38;;;;;;;;;;4996373;28;20407;-85
2022/12/18 14:28:46;;;;;;;17.63;14.27;;;;;;;;;;5013460;28;20488;-85
2022/12/18 14:31:19;;;;;;;17.92;14.95;;;;;;;;;;4995778;28;20440;-85
2022/12/18 14:33:45;;;;;;;18.85;15.23;;;;;;;;;;4995923;28;20408;-84
2022/12/18 14:36:39;;;;;;;19.15;15.73;;;;;;;;;;4996134;28;20445;-85